Time;durP1;ratioP1;P1;durP2;ratioP2;P2;SDS_P1;SDS_P2;PMS_P1;PMS_P2;Temp;Humidity;BMP_temperature;BMP_pressure;BME280_temperature;BME280_humidity;BME280_pressure;Samples;Min_cycle;Max_cycle;Signal;HPM_P1;HPM_P2
2021/03/15 00:01:15;;;;;;;63.37;33.03;;;;;;;9.27;82.53;94514.16;5092295;28;20196;-62
2021/03/15 00:07:00;;;;;;;28.33;17.93;;;;;;;9.32;83.51;94501.81;5078090;28;20272;-61
2021/03/15 00:12:49;;;;;;;23.70;16.57;;;;;;;9.24;84.56;94496.66;5091878;28;20194;-60
2021/03/15 00:18:55;;;;;;;22.23;17.03;;;;;;;9.24;84.53;94491.47;5091952;28;20705;-61
2021/03/15 00:21:22;;;;;;;24.40;17.40;;;;;;;9.43;83.60;94495.22;5091762;28;20651;-62
2021/03/15 00:23:51;;;;;;;25.37;18.10;;;;;;;9.47;83.00;94487.56;5091730;28;20203;-62
2021/03/15 00:30:31;;;;;;;23.30;17.90;;;;;;;9.27;84.09;94483.81;5091656;28;20301;-60
2021/03/15 00:43:40;;;;;;;24.10;17.20;;;;;;;9.23;85.68;94469.97;5009273;28;20636;-60
2021/03/15 00:46:12;;;;;;;25.00;18.17;;;;;;;9.20;85.89;94467.25;5009289;28;20226;-61
2021/03/15 00:48:42;;;;;;;24.47;17.47;;;;;;;9.23;86.41;94456.25;5056429;28;20826;-62
2021/03/15 00:51:11;;;;;;;23.83;17.60;;;;;;;9.23;86.53;94458.84;5091173;28;20664;-61
2021/03/15 00:54:17;;;;;;;25.87;18.70;;;;;;;9.23;86.66;94445.88;5091481;28;20204;-63
2021/03/15 00:57:02;;;;;;;30.80;22.50;;;;;;;9.31;86.05;94448.47;5091410;28;20647;-61
2021/03/15 00:59:58;;;;;;;36.77;25.47;;;;;;;9.32;85.94;94457.72;5091227;28;20231;-62
2021/03/15 01:02:28;;;;;;;39.07;22.73;;;;;;;9.29;86.13;94444.63;5091273;28;20290;-62
2021/03/15 01:04:57;;;;;;;47.30;29.17;;;;;;;9.32;86.39;94434.41;5089732;28;20247;-61
2021/03/15 01:07:31;;;;;;;38.40;26.83;;;;;;;9.35;86.20;94423.44;5090963;28;20226;-62
2021/03/15 01:10:39;;;;;;;;;;;;;;;;;;;;;
2021/03/15 01:13:17;;;;;;;29.57;20.73;;;;;;;9.34;86.36;94419.31;5028456;28;20209;-61
2021/03/15 01:15:49;;;;;;;25.77;18.97;;;;;;;9.16;87.09;94415.28;5052900;28;20346;-61
2021/03/15 01:18:18;;;;;;;25.80;18.73;;;;;;;9.10;88.42;94408.72;5090765;28;20227;-60
2021/03/15 01:24:05;;;;;;;25.70;18.97;;;;;;;9.17;88.16;94390.84;5086767;28;20200;-61
2021/03/15 01:26:33;;;;;;;25.33;18.33;;;;;;;9.17;87.92;94385.66;5090946;28;20298;-61
2021/03/15 01:29:02;;;;;;;25.80;19.97;;;;;;;9.10;89.00;94384.63;5090584;28;20200;-61
2021/03/15 01:31:30;;;;;;;25.90;18.67;;;;;;;9.22;88.59;94376.97;5090700;28;20222;-60
2021/03/15 01:34:00;;;;;;;28.43;18.33;;;;;;;9.16;88.31;94383.41;5090532;28;20685;-63
2021/03/15 01:36:27;;;;;;;24.03;18.07;;;;;;;9.11;89.54;94380.97;5090413;28;20204;-61
2021/03/15 01:38:54;;;;;;;25.30;18.20;;;;;;;9.13;89.52;94371.81;5090281;28;20223;-62
2021/03/15 01:45:01;;;;;;;22.47;17.50;;;;;;;9.04;90.59;94360.72;5080926;28;20246;-62
2021/03/15 01:47:31;;;;;;;25.53;18.83;;;;;;;9.04;90.33;94351.13;5090264;28;20677;-62
2021/03/15 01:50:02;;;;;;;24.57;18.10;;;;;;;9.02;90.76;94355.09;5090268;28;20207;-62
2021/03/15 01:52:29;;;;;;;24.53;17.87;;;;;;;9.15;91.10;94341.19;5090558;28;20196;-61
2021/03/15 01:54:56;;;;;;;26.43;18.90;;;;;;;9.19;91.97;94343.91;5090325;28;20622;-62
2021/03/15 01:57:25;;;;;;;27.60;19.23;;;;;;;9.18;91.57;94340.53;5090120;28;20690;-61
2021/03/15 01:59:52;;;;;;;27.27;18.00;;;;;;;9.22;91.19;94327.72;5090623;28;20199;-63
2021/03/15 02:02:34;;;;;;;28.00;19.67;;;;;;;9.24;91.85;94322.97;5090271;28;20202;-61
2021/03/15 02:08:51;;;;;;;27.70;18.40;;;;;;;9.14;92.08;94334.47;5090144;28;20320;-61
2021/03/15 02:11:26;;;;;;;26.33;18.63;;;;;;;9.20;92.55;94322.84;5089995;28;20198;-62
2021/03/15 02:14:33;;;;;;;25.20;18.20;;;;;;;9.25;92.28;94316.72;5089992;28;20230;-61
2021/03/15 02:17:18;;;;;;;25.37;19.00;;;;;;;9.25;92.48;94317.50;5090567;28;20224;-61
2021/03/15 02:20:13;;;;;;;24.73;17.93;;;;;;;9.23;93.20;94314.44;5089879;28;20635;-61
2021/03/15 02:22:56;;;;;;;27.00;19.30;;;;;;;9.32;92.28;94317.75;5090153;28;20207;-61
2021/03/15 02:26:01;;;;;;;26.33;19.47;;;;;;;9.32;92.13;94315.16;5089910;28;20196;-61
2021/03/15 02:29:13;;;;;;;32.43;20.27;;;;;;;9.30;92.86;94306.94;5089817;28;20678;-60
2021/03/15 02:32:09;;;;;;;33.13;21.53;;;;;;;9.22;93.63;94310.31;5089964;28;20735;-62
2021/03/15 02:35:04;;;;;;;32.53;22.27;;;;;;;9.27;93.41;94297.19;5088943;28;20199;-61
2021/03/15 02:40:58;;;;;;;30.77;21.33;;;;;;;9.22;93.96;94289.59;5093806;28;20570;-62
2021/03/15 02:43:30;;;;;;;29.30;20.97;;;;;;;9.24;94.07;94287.47;5093733;28;20191;-61
2021/03/15 02:46:03;;;;;;;29.33;20.83;;;;;;;9.33;93.52;94280.38;5093531;28;20226;-61
2021/03/15 02:48:41;;;;;;;38.13;25.60;;;;;;;9.21;93.49;94282.91;5093670;28;20192;-62
2021/03/15 02:51:14;;;;;;;64.63;38.70;;;;;;;9.17;94.00;94270.88;5093501;28;20191;-61
2021/03/15 02:53:45;;;;;;;60.67;38.80;;;;;;;9.21;94.24;94272.53;5094043;28;20663;-62
2021/03/15 02:56:20;;;;;;;56.13;36.67;;;;;;;9.14;94.33;94272.28;5093411;28;20666;-61
2021/03/15 02:59:11;;;;;;;34.33;23.70;;;;;;;9.08;94.86;94273.53;5093324;28;20219;-62
2021/03/15 03:01:47;;;;;;;30.30;20.77;;;;;;;9.08;94.19;94268.34;5093576;28;20617;-60
2021/03/15 03:04:17;;;;;;;30.57;19.80;;;;;;;9.02;94.59;94267.00;5092864;28;20235;-61
2021/03/15 03:06:51;;;;;;;25.33;18.63;;;;;;;8.96;95.18;94256.06;5093505;28;20203;-61
2021/03/15 03:09:40;;;;;;;26.20;19.33;;;;;;;8.93;95.78;94256.69;5093588;28;20196;-61
2021/03/15 03:12:22;;;;;;;25.30;17.97;;;;;;;8.79;96.54;94256.13;5093151;28;20282;-61
2021/03/15 03:14:59;;;;;;;25.47;19.37;;;;;;;8.85;97.31;94260.06;5093177;28;20203;-61
2021/03/15 03:17:39;;;;;;;26.37;18.83;;;;;;;8.86;96.67;94256.44;5093329;28;20195;-61
2021/03/15 03:20:10;;;;;;;29.47;18.97;;;;;;;8.91;96.29;94256.25;5093073;28;20337;-63
2021/03/15 03:22:41;;;;;;;25.10;18.87;;;;;;;8.92;96.27;94254.38;5093161;28;20204;-63
2021/03/15 03:25:15;;;;;;;26.67;18.80;;;;;;;9.02;95.89;94251.44;5092887;28;20608;-61
2021/03/15 03:27:53;;;;;;;25.30;18.10;;;;;;;9.06;95.51;94242.00;5092731;28;20565;-61
2021/03/15 03:30:25;;;;;;;24.80;19.17;;;;;;;9.01;95.95;94249.94;5093009;28;20196;-58
2021/03/15 03:32:54;;;;;;;25.63;19.13;;;;;;;8.90;96.51;94249.53;5092731;28;20199;-61
2021/03/15 03:35:24;;;;;;;31.00;20.60;;;;;;;8.82;97.19;94250.31;5092756;28;20204;-61
2021/03/15 03:37:55;;;;;;;28.60;19.90;;;;;;;8.76;97.73;94248.25;5092544;28;20253;-61
2021/03/15 03:40:25;;;;;;;30.20;20.37;;;;;;;8.79;97.68;94235.41;5092718;28;20257;-61
2021/03/15 03:42:57;;;;;;;30.30;20.50;;;;;;;8.78;98.13;94233.13;5092709;28;20670;-61
2021/03/15 03:45:26;;;;;;;34.03;20.73;;;;;;;8.79;98.13;94234.66;5092330;28;20196;-63
2021/03/15 03:48:44;;;;;;;25.63;19.73;;;;;;;8.76;97.84;94230.13;5091541;28;20257;-61
2021/03/15 03:54:49;;;;;;;27.20;19.70;;;;;;;8.81;97.87;94228.09;5069896;28;20238;-61
2021/03/15 03:57:30;;;;;;;28.10;20.27;;;;;;;8.82;97.98;94221.06;5069841;28;20288;-61
2021/03/15 04:00:01;;;;;;;24.47;18.90;;;;;;;8.68;97.91;94212.75;5069995;28;20624;-61
2021/03/15 04:02:31;;;;;;;35.43;21.93;;;;;;;8.50;98.56;94206.91;5069597;28;20207;-59
2021/03/15 04:05:04;;;;;;;31.13;22.87;;;;;;;8.47;98.91;94207.53;5069258;28;20711;-62
2021/03/15 04:07:33;;;;;;;32.43;23.10;;;;;;;8.48;99.31;94198.69;5069485;28;20216;-61
2021/03/15 04:10:06;;;;;;;29.87;22.03;;;;;;;8.52;99.91;94204.75;5069570;28;20576;-61
2021/03/15 04:12:34;;;;;;;34.00;24.47;;;;;;;8.51;99.13;94201.44;5069420;28;20196;-61
2021/03/15 04:15:03;;;;;;;46.83;28.63;;;;;;;8.54;99.69;94190.44;5069221;28;20199;-61
2021/03/15 04:17:35;;;;;;;33.57;23.00;;;;;;;8.68;99.40;94186.88;5069461;28;20208;-61
2021/03/15 04:20:06;;;;;;;31.10;20.57;;;;;;;8.76;98.29;94178.31;5069331;28;20201;-62
2021/03/15 04:22:39;;;;;;;34.13;25.57;;;;;;;8.80;98.19;94179.97;5069312;28;20283;-61
2021/03/15 04:25:11;;;;;;;32.17;22.60;;;;;;;8.74;97.83;94180.44;5080712;28;20207;-61
2021/03/15 04:27:41;;;;;;;28.50;21.20;;;;;;;8.74;98.56;94180.44;5091748;28;20224;-63
2021/03/15 04:30:10;;;;;;;28.00;20.33;;;;;;;8.77;98.45;94177.97;5091628;28;20291;-60
2021/03/15 04:32:38;;;;;;;27.67;20.93;;;;;;;8.79;98.27;94175.09;5091571;28;20232;-61
2021/03/15 04:35:07;;;;;;;30.77;22.10;;;;;;;8.79;97.83;94172.50;5091632;28;20257;-61
2021/03/15 04:37:36;;;;;;;31.90;21.20;;;;;;;8.59;98.91;94173.97;5091630;28;20200;-62
2021/03/15 04:40:05;;;;;;;31.87;21.53;;;;;;;8.57;99.13;94171.69;5091343;28;20616;-61
2021/03/15 04:42:34;;;;;;;27.20;20.23;;;;;;;8.68;99.08;94168.75;5091702;28;20214;-62
2021/03/15 04:45:02;;;;;;;25.93;19.17;;;;;;;8.67;98.52;94175.03;5091648;28;20650;-61
2021/03/15 04:47:29;;;;;;;29.17;19.63;;;;;;;8.73;98.31;94174.50;5091345;28;20314;-62
2021/03/15 04:49:57;;;;;;;52.10;32.87;;;;;;;8.70;98.26;94169.19;5091854;28;20206;-63
2021/03/15 04:52:26;;;;;;;43.07;28.73;;;;;;;8.72;98.35;94169.66;5091191;28;20566;-63
2021/03/15 04:54:53;;;;;;;34.60;23.77;;;;;;;8.75;97.99;94163.84;5091116;28;20773;-63
2021/03/15 04:57:21;;;;;;;36.57;23.47;;;;;;;8.74;97.79;94157.13;5091037;28;20282;-63
2021/03/15 04:59:51;;;;;;;30.90;19.93;;;;;;;8.74;97.81;94159.72;5089943;28;20228;-60
2021/03/15 05:02:22;;;;;;;27.33;19.77;;;;;;;8.73;97.61;94164.16;5090863;28;20203;-62
2021/03/15 05:04:50;;;;;;;28.50;19.80;;;;;;;8.77;97.45;94156.50;5090784;28;20374;-63
2021/03/15 05:07:19;;;;;;;28.53;20.87;;;;;;;8.80;97.63;94163.66;5090748;28;20200;-62
2021/03/15 05:09:48;;;;;;;32.47;20.93;;;;;;;8.74;97.98;94150.13;5091349;28;20273;-63
2021/03/15 05:12:15;;;;;;;51.10;25.20;;;;;;;8.84;97.89;94154.19;5091181;28;20651;-62
2021/03/15 05:14:42;;;;;;;40.37;22.97;;;;;;;8.91;97.24;94154.47;5090690;28;20188;-63
2021/03/15 05:17:11;;;;;;;31.03;20.93;;;;;;;9.00;96.22;94155.16;5090737;28;20218;-63
2021/03/15 05:19:40;;;;;;;30.77;21.67;;;;;;;8.96;96.90;94147.25;5090605;28;20314;-62
2021/03/15 05:22:08;;;;;;;30.57;22.07;;;;;;;8.94;96.65;94156.41;5090532;28;20192;-64
2021/03/15 05:24:37;;;;;;;29.77;21.57;;;;;;;9.03;96.94;94157.88;5090532;28;20196;-61
2021/03/15 05:27:05;;;;;;;32.40;24.13;;;;;;;9.04;96.44;94153.44;5090605;28;20683;-62
2021/03/15 05:29:35;;;;;;;29.97;21.93;;;;;;;9.10;96.28;94147.00;5090551;28;20281;-62
2021/03/15 05:32:02;;;;;;;33.80;21.37;;;;;;;9.19;96.40;94152.88;5090596;28;20204;-62
2021/03/15 05:34:32;;;;;;;33.80;21.30;;;;;;;9.23;97.21;94148.56;5090678;28;20196;-62
2021/03/15 05:37:02;;;;;;;26.47;19.47;;;;;;;9.21;97.14;94152.56;5090156;28;20764;-61
2021/03/15 05:39:30;;;;;;;24.63;18.27;;;;;;;9.17;97.22;94154.25;5090202;28;20234;-62
2021/03/15 05:42:16;;;;;;;23.37;17.93;;;;;;;9.21;97.16;94152.56;5090365;28;20196;-61
2021/03/15 05:45:16;;;;;;;29.27;18.87;;;;;;;9.13;96.67;94143.78;5091089;28;20199;-62
2021/03/15 05:48:14;;;;;;;29.27;21.77;;;;;;;9.17;95.96;94136.13;5091464;28;20226;-61
2021/03/15 05:51:17;;;;;;;33.10;22.50;;;;;;;9.21;96.31;94142.97;5089619;28;20283;-62
2021/03/15 05:54:15;;;;;;;34.87;25.17;;;;;;;9.20;96.35;94145.88;5090483;28;20196;-63
2021/03/15 05:56:54;;;;;;;33.73;24.50;;;;;;;9.25;96.23;94137.91;5090108;28;20196;-61
2021/03/15 05:59:37;;;;;;;37.07;25.13;;;;;;;9.29;95.87;94144.72;5089946;28;20850;-61
2021/03/15 06:02:28;;;;;;;35.70;24.50;;;;;;;9.33;96.24;94145.59;5089644;28;20256;-61
2021/03/15 06:05:20;;;;;;;35.97;26.47;;;;;;;9.37;96.01;94140.53;5089403;28;20235;-62
2021/03/15 06:07:49;;;;;;;43.03;27.83;;;;;;;9.39;95.94;94144.31;5089750;28;20210;-62
2021/03/15 06:10:24;;;;;;;37.77;26.43;;;;;;;9.47;95.75;94143.47;5090535;28;20279;-62
2021/03/15 06:12:53;;;;;;;56.87;34.93;;;;;;;9.48;95.26;94142.41;5094086;28;20290;-61
2021/03/15 06:15:33;;;;;;;44.90;29.63;;;;;;;9.51;95.33;94162.50;5093850;28;20247;-63
2021/03/15 06:18:03;;;;;;;31.80;22.50;;;;;;;9.60;95.78;94144.31;5093664;28;20195;-61
2021/03/15 06:20:31;;;;;;;30.40;22.83;;;;;;;9.79;94.69;94136.03;5093704;28;20603;-62
2021/03/15 06:23:00;;;;;;;44.37;30.03;;;;;;;9.85;93.51;94129.56;5093644;28;20282;-62
2021/03/15 06:25:28;;;;;;;41.00;28.80;;;;;;;9.85;93.58;94132.91;5093864;28;20223;-62
2021/03/15 06:27:56;;;;;;;35.27;25.40;;;;;;;9.86;94.26;94144.06;5093906;28;20227;-61
2021/03/15 06:30:25;;;;;;;27.17;20.10;;;;;;;9.92;93.83;94140.16;5093539;28;20282;-62
2021/03/15 06:32:53;;;;;;;28.63;21.37;;;;;;;10.07;93.14;94136.94;5093850;28;20223;-61
2021/03/15 06:35:21;;;;;;;26.20;20.37;;;;;;;10.01;93.46;94140.84;5093522;28;20256;-63
2021/03/15 06:37:48;;;;;;;32.00;20.70;;;;;;;10.07;93.70;94138.78;5093493;28;20223;-62
2021/03/15 06:40:18;;;;;;;26.43;19.93;;;;;;;10.05;92.18;94136.50;5093701;28;20244;-63
2021/03/15 06:42:46;;;;;;;27.03;20.83;;;;;;;10.08;92.28;94138.44;5093323;28;20278;-64
2021/03/15 06:45:16;;;;;;;29.50;21.43;;;;;;;10.21;90.83;94134.06;5093741;28;20204;-62
2021/03/15 06:47:43;;;;;;;33.43;27.27;;;;;;;10.27;91.07;94141.31;5093171;28;20220;-61
2021/03/15 06:50:11;;;;;;;30.43;23.00;;;;;;;10.29;90.68;94130.59;5093516;28;20198;-62
2021/03/15 06:52:57;;;;;;;30.03;21.93;;;;;;;10.45;89.91;94133.31;5093132;28;20240;-63
2021/03/15 06:55:29;;;;;;;32.77;23.87;;;;;;;10.57;88.61;94128.09;5093137;28;20192;-63
2021/03/15 06:57:56;;;;;;;29.70;21.80;;;;;;;10.54;89.03;94129.53;5093013;28;20199;-62
2021/03/15 07:00:25;;;;;;;30.43;21.73;;;;;;;10.69;88.68;94131.47;5093259;28;20188;-62
2021/03/15 07:03:00;;;;;;;30.53;21.97;;;;;;;10.77;88.60;94127.22;5093031;28;20188;-63
2021/03/15 07:05:28;;;;;;;34.97;23.80;;;;;;;10.87;88.90;94134.56;5093014;28;20227;-62
2021/03/15 07:07:56;;;;;;;31.47;21.57;;;;;;;10.96;88.04;94129.25;5093084;28;20196;-62
2021/03/15 07:10:26;;;;;;;25.77;19.10;;;;;;;10.83;87.78;94125.91;5093003;28;20639;-62
2021/03/15 07:13:09;;;;;;;28.60;20.57;;;;;;;10.85;88.21;94117.81;5092943;28;20252;-62
2021/03/15 07:15:36;;;;;;;32.57;22.93;;;;;;;10.83;87.63;94123.31;5093135;28;20207;-62
2021/03/15 07:18:14;;;;;;;34.27;24.00;;;;;;;10.88;88.76;94112.69;5092532;28;20219;-62
2021/03/15 07:20:42;;;;;;;30.97;23.23;;;;;;;10.79;88.42;94110.22;5092763;28;20422;-63
2021/03/15 07:23:09;;;;;;;31.03;21.23;;;;;;;10.70;88.34;94111.44;5091569;28;20203;-62
2021/03/15 07:25:37;;;;;;;30.20;22.60;;;;;;;10.61;88.73;94101.16;5092398;28;20231;-62
2021/03/15 07:28:05;;;;;;;34.60;23.83;;;;;;;10.54;88.76;94095.75;5092435;28;20674;-63
2021/03/15 07:30:39;;;;;;;30.60;23.53;;;;;;;10.48;89.19;94098.91;5092722;28;20220;-62
2021/03/15 07:33:15;;;;;;;33.80;25.67;;;;;;;10.48;90.84;94089.28;5092489;28;20293;-62
2021/03/15 07:35:42;;;;;;;29.20;21.40;;;;;;;10.70;89.25;94088.06;5092470;28;20198;-63
2021/03/15 07:38:09;;;;;;;29.77;21.23;;;;;;;10.75;89.74;94077.44;5092616;28;20196;-62
2021/03/15 07:40:42;;;;;;;29.73;22.07;;;;;;;10.73;88.91;94082.19;5092517;28;20195;-62
2021/03/15 07:43:10;;;;;;;28.47;20.03;;;;;;;10.65;89.12;94083.09;5092384;28;20196;-64
2021/03/15 07:45:39;;;;;;;32.17;21.33;;;;;;;10.72;89.64;94088.47;5092220;28;20188;-63
2021/03/15 07:48:10;;;;;;;26.83;20.23;;;;;;;10.56;90.03;94092.84;5092443;28;20671;-61
2021/03/15 07:50:40;;;;;;;31.27;20.70;;;;;;;10.66;89.10;94080.16;5092491;28;20282;-63
2021/03/15 07:53:09;;;;;;;28.10;20.90;;;;;;;10.75;87.48;94072.25;5092088;28;20198;-63
2021/03/15 07:55:40;;;;;;;29.00;21.07;;;;;;;10.74;89.50;94075.91;5092089;28;20199;-63
2021/03/15 07:58:32;;;;;;;28.33;22.50;;;;;;;10.78;89.64;94074.94;5092031;28;20275;-64
2021/03/15 08:01:02;;;;;;;27.23;21.00;;;;;;;10.89;88.38;94075.25;5092292;28;20203;-63
2021/03/15 08:03:32;;;;;;;35.90;23.03;;;;;;;10.86;88.80;94078.47;5091942;28;20658;-62
2021/03/15 08:06:01;;;;;;;32.87;22.00;;;;;;;10.90;88.21;94073.41;5091753;28;20662;-63
2021/03/15 08:08:29;;;;;;;29.60;21.40;;;;;;;10.96;87.63;94078.00;5092104;28;20256;-60
2021/03/15 08:10:57;;;;;;;29.03;22.87;;;;;;;11.02;87.47;94070.75;5091784;28;20199;-63
2021/03/15 08:13:25;;;;;;;29.67;22.60;;;;;;;11.08;88.79;94072.03;5091673;28;20265;-64
2021/03/15 08:15:59;;;;;;;27.07;21.30;;;;;;;11.30;86.10;94058.53;5091830;28;20269;-63
2021/03/15 08:18:28;;;;;;;30.23;21.27;;;;;;;11.42;85.20;94063.66;5091561;28;20309;-63
2021/03/15 08:21:01;;;;;;;44.00;25.13;;;;;;;11.39;86.91;94061.72;5091494;28;20310;-63
2021/03/15 08:23:31;;;;;;;33.73;23.83;;;;;;;11.54;85.57;94055.78;5091784;28;20279;-62
2021/03/15 08:26:04;;;;;;;38.00;25.10;;;;;;;11.57;85.42;94044.72;5091714;28;20196;-61
2021/03/15 08:28:33;;;;;;;33.90;23.13;;;;;;;11.68;84.19;94046.81;5091587;28;20268;-63
2021/03/15 08:31:13;;;;;;;34.93;25.43;;;;;;;11.71;84.14;94041.69;5091226;28;20236;-63
2021/03/15 08:33:40;;;;;;;42.43;24.17;;;;;;;11.77;84.32;94037.78;5091189;28;20561;-62
2021/03/15 08:36:08;;;;;;;30.07;22.17;;;;;;;11.97;83.50;94044.59;5091691;28;20285;-63
2021/03/15 08:38:35;;;;;;;30.60;21.77;;;;;;;11.86;83.43;94038.38;5091310;28;20227;-64
2021/03/15 08:41:04;;;;;;;35.63;23.37;;;;;;;12.03;84.18;94035.44;5091280;28;20711;-61
2021/03/15 08:43:40;;;;;;;41.60;22.63;;;;;;;12.16;83.28;94033.47;5091163;28;20203;-63
2021/03/15 08:46:16;;;;;;;33.57;22.57;;;;;;;12.20;81.54;94038.78;5091204;28;20264;-61
2021/03/15 08:49:21;;;;;;;36.23;22.10;;;;;;;12.30;82.37;94027.84;5089920;28;20199;-63
2021/03/15 08:51:49;;;;;;;28.83;19.53;;;;;;;12.70;79.08;94025.69;5091199;28;20295;-63
2021/03/15 08:54:36;;;;;;;26.53;18.80;;;;;;;12.82;78.76;94020.34;5090834;28;20663;-63
2021/03/15 08:57:04;;;;;;;37.30;21.33;;;;;;;13.03;77.37;94009.59;5090818;28;20200;-63
2021/03/15 08:59:33;;;;;;;31.20;19.40;;;;;;;13.23;76.55;94011.09;5090859;28;20241;-62
2021/03/15 09:02:06;;;;;;;33.00;20.13;;;;;;;13.32;76.24;94013.47;5091081;28;20204;-63
2021/03/15 09:04:42;;;;;;;30.20;21.30;;;;;;;13.26;75.64;94002.56;5090285;28;20231;-63
2021/03/15 09:07:40;;;;;;;26.43;18.93;;;;;;;13.59;74.78;93988.97;5090924;28;20198;-63
2021/03/15 09:10:42;;;;;;;26.17;17.03;;;;;;;13.95;71.62;93985.03;5066966;28;20200;-63
2021/03/15 09:13:26;;;;;;;19.53;15.33;;;;;;;14.15;71.22;93975.25;5091056;28;20662;-62
2021/03/15 09:15:56;;;;;;;25.33;16.70;;;;;;;13.94;70.35;93974.97;5090916;28;20655;-62
2021/03/15 09:18:54;;;;;;;29.77;18.77;;;;;;;13.86;71.51;93968.13;5090361;28;20231;-63
2021/03/15 09:21:44;;;;;;;21.30;17.83;;;;;;;13.29;72.53;93962.00;5090592;28;20226;-62
2021/03/15 09:24:45;;;;;;;39.93;19.93;;;;;;;13.30;72.37;93951.22;5090269;28;20199;-63
2021/03/15 09:27:23;;;;;;;26.93;17.63;;;;;;;13.30;72.28;93948.59;5090286;28;20288;-63
2021/03/15 09:29:54;;;;;;;28.23;17.57;;;;;;;13.40;72.07;93933.50;5090898;28;20222;-62
2021/03/15 09:32:32;;;;;;;21.30;16.37;;;;;;;13.67;70.99;93933.16;5090437;28;20796;-63
2021/03/15 09:35:02;;;;;;;26.80;19.20;;;;;;;14.01;72.53;93931.41;5090467;28;20844;-63
2021/03/15 09:37:29;;;;;;;25.43;17.40;;;;;;;14.19;70.51;93926.44;5090288;28;20251;-63
2021/03/15 09:39:57;;;;;;;29.40;15.93;;;;;;;14.22;69.74;93925.72;5089999;28;20226;-63
2021/03/15 09:42:24;;;;;;;31.00;18.20;;;;;;;14.20;71.61;93914.88;5090097;28;20195;-62
2021/03/15 09:44:51;;;;;;;22.10;17.07;;;;;;;14.31;68.10;93915.00;5089660;28;20203;-62
2021/03/15 09:47:26;;;;;;;21.10;16.13;;;;;;;14.37;69.11;93906.53;5090221;28;20216;-64
2021/03/15 09:49:53;;;;;;;25.80;17.77;;;;;;;14.42;70.25;93914.06;5090140;28;20187;-63
2021/03/15 09:52:23;;;;;;;31.50;17.10;;;;;;;14.43;68.75;93912.19;5090001;28;20238;-62
2021/03/15 09:54:52;;;;;;;21.20;15.53;;;;;;;14.43;68.98;93909.59;5089884;28;20221;-63
2021/03/15 09:57:20;;;;;;;21.60;16.43;;;;;;;14.51;68.69;93909.31;5089798;28;20235;-64
2021/03/15 09:59:48;;;;;;;24.03;14.00;;;;;;;14.37;68.56;93901.31;5089843;28;20223;-63
2021/03/15 10:02:16;;;;;;;26.67;17.87;;;;;;;14.02;67.69;93898.22;5089886;28;20196;-62
2021/03/15 10:04:43;;;;;;;22.57;17.43;;;;;;;14.13;68.52;93899.13;5089831;28;20234;-64
2021/03/15 10:07:12;;;;;;;29.43;18.80;;;;;;;14.29;67.39;93886.63;5089628;28;20589;-62
2021/03/15 10:09:43;;;;;;;23.33;15.23;;;;;;;14.33;68.02;93891.88;5089610;28;20238;-63
2021/03/15 10:12:19;;;;;;;20.00;16.23;;;;;;;14.25;68.84;93885.09;5089805;28;20200;-63
2021/03/15 10:14:46;;;;;;;17.40;13.93;;;;;;;14.11;66.39;93885.63;5089692;28;20246;-62
2021/03/15 10:17:21;;;;;;;20.03;15.17;;;;;;;14.03;67.52;93878.84;5089586;28;20188;-63
2021/03/15 10:19:48;;;;;;;21.03;16.80;;;;;;;13.86;67.89;93879.34;5089593;28;20222;-62
2021/03/15 10:22:16;;;;;;;24.03;16.93;;;;;;;14.00;66.66;93875.06;5089957;28;20228;-63
2021/03/15 10:24:46;;;;;;;18.00;13.80;;;;;;;13.86;68.42;93871.50;5089539;28;20195;-62
2021/03/15 10:27:18;;;;;;;24.70;15.97;;;;;;;13.85;68.39;93868.13;5089486;28;20224;-63
2021/03/15 10:29:53;;;;;;;29.77;20.07;;;;;;;13.87;67.80;93865.19;5089600;28;20621;-63
2021/03/15 10:32:22;;;;;;;24.10;17.30;;;;;;;13.66;68.48;93866.41;5089706;28;20207;-64
2021/03/15 10:34:56;;;;;;;21.87;15.77;;;;;;;13.52;68.03;93865.44;5089446;28;20196;-63
2021/03/15 10:37:24;;;;;;;21.30;15.03;;;;;;;13.49;70.35;93863.56;5089730;28;20692;-62
2021/03/15 10:39:55;;;;;;;18.47;14.53;;;;;;;13.58;69.15;93864.06;5089369;28;20226;-63
2021/03/15 10:42:23;;;;;;;18.27;14.03;;;;;;;13.48;69.36;93862.78;5089637;28;20279;-63
2021/03/15 10:44:51;;;;;;;19.10;13.83;;;;;;;13.51;68.85;93848.28;5089926;28;20206;-64
2021/03/15 10:47:32;;;;;;;16.37;13.30;;;;;;;13.48;69.94;93847.13;5089429;28;20216;-63
2021/03/15 10:49:59;;;;;;;18.33;14.40;;;;;;;13.38;70.28;93847.72;5089453;28;20584;-63
2021/03/15 10:52:31;;;;;;;23.67;14.30;;;;;;;13.37;70.39;93838.41;5089397;28;20279;-63
2021/03/15 10:55:12;;;;;;;20.30;14.67;;;;;;;13.48;71.31;93834.09;5089499;28;20200;-63
2021/03/15 10:57:59;;;;;;;19.43;13.90;;;;;;;13.55;72.85;93828.22;5092387;28;20282;-63
2021/03/15 11:00:27;;;;;;;19.63;14.77;;;;;;;13.71;71.68;93824.34;5093136;28;20219;-63
2021/03/15 11:02:55;;;;;;;23.70;16.20;;;;;;;13.92;70.95;93815.25;5093144;28;20200;-63
2021/03/15 11:05:22;;;;;;;18.90;14.00;;;;;;;13.87;69.00;93802.53;5092750;28;20224;-63
2021/03/15 11:07:50;;;;;;;21.03;15.70;;;;;;;13.85;68.58;93795.03;5093345;28;20274;-63
2021/03/15 11:10:20;;;;;;;20.27;15.40;;;;;;;13.91;68.32;93798.09;5092614;28;20203;-63
2021/03/15 11:12:48;;;;;;;24.00;16.93;;;;;;;13.69;68.17;93790.00;5092742;28;20198;-62
2021/03/15 11:15:23;;;;;;;27.87;15.20;;;;;;;13.86;68.64;93775.66;5092651;28;20196;-62
2021/03/15 11:18:03;;;;;;;25.97;16.10;;;;;;;14.05;67.65;93775.50;5092847;28;20666;-62
2021/03/15 11:20:37;;;;;;;17.60;12.77;;;;;;;14.01;67.18;93771.34;5092685;28;20237;-62
2021/03/15 11:23:03;;;;;;;25.70;14.43;;;;;;;14.09;68.82;93768.47;5092691;28;20275;-63
2021/03/15 11:25:32;;;;;;;29.90;15.43;;;;;;;14.24;64.76;93764.16;5092778;28;20200;-63
2021/03/15 11:28:06;;;;;;;37.77;15.03;;;;;;;14.31;64.02;93760.84;5092514;28;20202;-63
2021/03/15 11:30:33;;;;;;;20.60;14.57;;;;;;;14.26;65.88;93756.69;5092619;28;20231;-64
2021/03/15 11:33:01;;;;;;;31.23;15.80;;;;;;;14.35;64.42;93759.75;5092541;28;20295;-63
2021/03/15 11:35:28;;;;;;;18.53;14.53;;;;;;;14.39;64.96;93760.59;5092782;28;20219;-62
2021/03/15 11:37:57;;;;;;;25.70;16.97;;;;;;;14.40;65.62;93767.31;5092143;28;20288;-63
2021/03/15 11:40:34;;;;;;;17.03;11.53;;;;;;;14.31;65.50;93772.03;5092425;28;20647;-63
2021/03/15 11:43:02;;;;;;;18.17;11.80;;;;;;;14.17;66.55;93769.28;5092725;28;20187;-62
2021/03/15 11:45:30;;;;;;;19.13;12.57;;;;;;;13.87;66.80;93781.63;5092186;28;20192;-62
2021/03/15 11:47:57;;;;;;;10.57;7.83;;;;;;;13.45;67.76;93792.31;5092231;28;20279;-62
2021/03/15 11:50:25;;;;;;;12.20;7.23;;;;;;;12.88;73.01;93794.78;5092237;28;20246;-64
2021/03/15 11:52:52;;;;;;;12.63;7.47;;;;;;;12.22;77.74;93797.00;5092217;28;20279;-64
2021/03/15 11:55:20;;;;;;;19.53;9.57;;;;;;;11.59;81.74;93799.84;5092100;28;20242;-62
2021/03/15 11:57:49;;;;;;;11.17;6.40;;;;;;;11.20;85.39;93799.00;5091984;28;20230;-62
2021/03/15 12:00:18;;;;;;;12.23;7.00;;;;;;;10.58;88.23;93797.16;5092027;28;20696;-62
2021/03/15 12:02:45;;;;;;;9.43;7.07;;;;;;;10.34;90.35;93788.44;5092106;28;20269;-64
2021/03/15 12:05:14;;;;;;;16.83;9.23;;;;;;;10.09;91.88;93778.47;5092016;28;20240;-64
2021/03/15 12:07:41;;;;;;;8.90;6.40;;;;;;;9.64;92.88;93782.09;5091345;28;20804;-62
2021/03/15 12:10:10;;;;;;;7.03;5.47;;;;;;;9.30;96.53;93780.78;5091862;28;20635;-63
2021/03/15 12:12:38;;;;;;;9.53;5.27;;;;;;;8.97;97.60;93770.53;5092432;28;20758;-63
2021/03/15 12:15:08;;;;;;;11.50;5.30;;;;;;;8.95;97.75;93766.78;5092788;28;20199;-63
2021/03/15 12:17:35;;;;;;;6.63;5.37;;;;;;;8.91;98.87;93758.16;5092130;28;20196;-63
2021/03/15 12:20:04;;;;;;;10.53;7.73;;;;;;;8.82;100.00;93762.66;5091712;28;20327;-65
2021/03/15 12:22:31;;;;;;;10.67;6.67;;;;;;;8.82;100.00;93767.84;5091496;28;20239;-64
2021/03/15 12:24:58;;;;;;;8.73;6.20;;;;;;;8.93;100.00;93758.56;5092007;28;20196;-63
2021/03/15 12:27:25;;;;;;;13.80;7.13;;;;;;;9.08;100.00;93776.81;5091702;28;20195;-64
2021/03/15 12:29:52;;;;;;;7.47;4.43;;;;;;;9.05;99.59;93787.06;5091847;28;20196;-65
2021/03/15 12:32:20;;;;;;;5.93;4.00;;;;;;;9.11;99.03;93775.41;5091638;28;20204;-64
2021/03/15 12:34:49;;;;;;;5.93;3.43;;;;;;;9.04;97.78;93775.94;5091445;28;20249;-62